Time;durP1;ratioP1;P1;durP2;ratioP2;P2;SDS_P1;SDS_P2;PMS_P1;PMS_P2;Temp;Humidity;BMP_temperature;BMP_pressure;BME280_temperature;BME280_humidity;BME280_pressure;Samples;Min_cycle;Max_cycle;Signal;HPM_P1;HPM_P2
2021/03/03 00:01:06;;;;;;;22.73;11.30;;;5.80;99.90;;;;;;5074611;28;20173;-77
2021/03/03 00:03:32;;;;;;;17.70;10.33;;;5.70;99.90;;;;;;5074879;28;20165;-75
2021/03/03 00:05:57;;;;;;;20.00;10.93;;;5.70;99.90;;;;;;5074679;28;20181;-77
2021/03/03 00:08:23;;;;;;;15.40;10.03;;;5.70;99.90;;;;;;5074275;28;20196;-77
2021/03/03 00:10:49;;;;;;;20.60;11.30;;;5.70;99.90;;;;;;5074693;28;20677;-79
2021/03/03 00:13:14;;;;;;;18.77;11.33;;;5.60;99.90;;;;;;5072842;28;20184;-77
2021/03/03 00:15:40;;;;;;;19.37;10.93;;;5.50;99.90;;;;;;5073017;28;20184;-75
2021/03/03 00:18:05;;;;;;;24.27;12.23;;;5.50;99.90;;;;;;5073967;28;20223;-77
2021/03/03 00:20:31;;;;;;;17.27;10.33;;;5.40;99.90;;;;;;5074295;28;20177;-78
2021/03/03 00:22:57;;;;;;;17.63;11.07;;;5.30;99.90;;;;;;5074188;28;20203;-77
2021/03/03 00:25:22;;;;;;;21.60;10.27;;;5.30;99.90;;;;;;5074416;28;20403;-77
2021/03/03 00:27:48;;;;;;;19.87;12.07;;;5.30;99.90;;;;;;5074144;28;20281;-77
2021/03/03 00:30:15;;;;;;;19.70;11.03;;;5.20;99.90;;;;;;5074142;28;20540;-78
2021/03/03 00:32:41;;;;;;;23.27;11.57;;;5.20;99.90;;;;;;5072778;28;20188;-77
2021/03/03 00:35:07;;;;;;;23.93;12.20;;;5.20;99.90;;;;;;5072741;28;20185;-77
2021/03/03 00:37:33;;;;;;;19.88;11.43;;;5.20;99.90;;;;;;5073274;28;20212;-75
2021/03/03 00:39:58;;;;;;;22.90;11.33;;;5.20;99.90;;;;;;5072709;28;20500;-76
2021/03/03 00:42:24;;;;;;;23.67;11.90;;;5.20;99.90;;;;;;5073827;28;20173;-76
2021/03/03 00:44:49;;;;;;;19.00;10.80;;;5.10;99.90;;;;;;5073887;28;20165;-77
2021/03/03 00:47:15;;;;;;;16.57;10.87;;;5.10;99.90;;;;;;5073868;28;21275;-75
2021/03/03 00:49:40;;;;;;;19.40;11.47;;;5.10;99.90;;;;;;5073853;28;20172;-77
2021/03/03 00:52:06;;;;;;;19.30;12.00;;;5.10;99.90;;;;;;5073879;28;20172;-76
2021/03/03 00:54:31;;;;;;;24.57;11.70;;;5.00;99.90;;;;;;5072946;28;20475;-78
2021/03/03 00:56:57;;;;;;;20.93;11.50;;;5.00;99.90;;;;;;5073178;28;20208;-78
2021/03/03 00:59:22;;;;;;;19.80;10.97;;;5.00;99.90;;;;;;5073676;28;20314;-76
2021/03/03 01:01:48;;;;;;;20.80;11.60;;;5.00;99.90;;;;;;5073416;28;20177;-78
2021/03/03 01:04:14;;;;;;;19.90;10.80;;;4.90;99.90;;;;;;5073767;28;20684;-78
2021/03/03 01:06:39;;;;;;;15.90;10.43;;;4.90;99.90;;;;;;5073493;28;20176;-78
2021/03/03 01:09:05;;;;;;;25.27;11.53;;;4.90;99.90;;;;;;5073111;28;20199;-74
2021/03/03 01:11:31;;;;;;;22.03;11.37;;;4.80;99.90;;;;;;5073699;28;20263;-76
2021/03/03 01:13:56;;;;;;;21.33;11.67;;;4.80;99.90;;;;;;5072095;28;20229;-78
2021/03/03 01:16:22;;;;;;;18.10;10.47;;;4.80;99.90;;;;;;5073494;28;20324;-78
2021/03/03 01:18:48;;;;;;;25.23;11.63;;;4.80;99.90;;;;;;5073045;28;20273;-76
2021/03/03 01:21:13;;;;;;;20.93;10.87;;;4.80;99.90;;;;;;5073454;28;20176;-76
2021/03/03 01:23:39;;;;;;;22.60;11.57;;;4.70;99.90;;;;;;5071879;28;20172;-79
2021/03/03 01:26:05;;;;;;;26.58;11.88;;;4.70;99.90;;;;;;5071932;28;20199;-76
2021/03/03 01:28:31;;;;;;;20.37;12.17;;;4.70;99.90;;;;;;5072954;28;20193;-77
2021/03/03 01:30:57;;;;;;;18.27;10.50;;;4.70;99.90;;;;;;5073259;28;20644;-76
2021/03/03 01:33:27;;;;;;;21.60;11.75;;;4.70;99.90;;;;;;5073204;28;20570;-76
2021/03/03 01:35:52;;;;;;;20.65;11.00;;;4.60;99.90;;;;;;5071667;28;20672;-77
2021/03/03 01:38:18;;;;;;;19.20;11.40;;;4.60;99.90;;;;;;5071714;28;20197;-77
2021/03/03 01:40:44;;;;;;;18.73;11.60;;;4.60;99.90;;;;;;5073715;28;20396;-76
2021/03/03 01:43:09;;;;;;;20.50;11.43;;;4.60;99.90;;;;;;5073383;28;20173;-76
2021/03/03 01:45:35;;;;;;;18.97;12.10;;;4.50;99.90;;;;;;5073308;28;20414;-78
2021/03/03 01:48:01;;;;;;;17.97;10.27;;;4.50;99.90;;;;;;5072449;28;20223;-78
2021/03/03 01:50:26;;;;;;;18.03;11.03;;;4.50;99.90;;;;;;5073061;28;20183;-76
2021/03/03 01:52:52;;;;;;;19.27;11.43;;;4.50;99.90;;;;;;5073046;28;20173;-75
2021/03/03 01:55:18;;;;;;;20.98;13.27;;;4.50;99.90;;;;;;5072947;28;20180;-77
2021/03/03 01:57:44;;;;;;;19.30;11.50;;;4.40;99.90;;;;;;5072533;28;20604;-77
2021/03/03 02:00:11;;;;;;;19.60;11.90;;;4.40;99.90;;;;;;5072905;28;20174;-80
2021/03/03 02:02:36;;;;;;;19.50;11.45;;;4.40;99.90;;;;;;5073230;28;20182;-78
2021/03/03 02:05:03;;;;;;;26.47;12.67;;;4.40;99.90;;;;;;5074448;28;20164;-77
2021/03/03 02:07:54;;;;;;;20.67;11.60;;;4.40;99.90;;;;;;5076571;28;20257;-78
2021/03/03 02:10:25;;;;;;;22.77;11.48;;;4.50;99.90;;;;;;5076886;28;20580;-78
2021/03/03 02:12:52;;;;;;;28.20;12.27;;;4.40;99.90;;;;;;5076845;28;20178;-78
2021/03/03 02:15:20;;;;;;;21.02;11.82;;;4.50;99.90;;;;;;5076693;28;20195;-76
2021/03/03 02:17:47;;;;;;;18.25;12.27;;;4.60;99.90;;;;;;5076471;28;20208;-76
2021/03/03 02:20:16;;;;;;;24.92;12.18;;;4.60;99.90;;;;;;5075365;28;20176;-77
2021/03/03 02:22:58;;;;;;;23.75;11.90;;;4.60;99.90;;;;;;5076784;28;20221;-76
2021/03/03 02:25:30;;;;;;;20.02;11.35;;;4.70;99.90;;;;;;5076502;28;20172;-77
2021/03/03 02:28:00;;;;;;;23.80;13.43;;;4.60;99.90;;;;;;5074803;28;20203;-78
2021/03/03 02:30:28;;;;;;;25.50;13.27;;;4.60;99.90;;;;;;5076397;28;20512;-77
2021/03/03 02:32:55;;;;;;;20.75;11.05;;;4.60;99.90;;;;;;5076418;28;20169;-77
2021/03/03 02:35:21;;;;;;;27.90;12.95;;;4.60;99.90;;;;;;5076423;28;20168;-76
2021/03/03 02:37:47;;;;;;;26.83;13.43;;;4.60;99.90;;;;;;5075953;28;20620;-77
2021/03/03 02:40:15;;;;;;;25.17;12.65;;;4.50;99.90;;;;;;5076224;28;20169;-78
2021/03/03 02:42:41;;;;;;;23.15;11.65;;;4.50;99.90;;;;;;5076161;28;20178;-77
2021/03/03 02:45:09;;;;;;;22.05;12.88;;;4.50;99.90;;;;;;5076096;28;20164;-76
2021/03/03 02:47:37;;;;;;;28.77;14.18;;;4.50;99.90;;;;;;5075770;28;20215;-77
2021/03/03 02:50:12;;;;;;;21.73;12.48;;;4.50;99.90;;;;;;5076086;28;20188;-79
2021/03/03 02:52:52;;;;;;;23.83;12.57;;;4.50;99.90;;;;;;5076191;28;20608;-78
2021/03/03 02:55:19;;;;;;;23.33;12.95;;;4.50;99.90;;;;;;5074854;28;20636;-77
2021/03/03 02:57:45;;;;;;;27.98;13.05;;;4.50;99.90;;;;;;5108195;28;20697;-76
2021/03/03 03:00:18;;;;;;;26.35;13.75;;;4.50;99.90;;;;;;5076016;28;20165;-76
2021/03/03 03:02:47;;;;;;;28.17;13.55;;;4.50;99.90;;;;;;5075885;28;20256;-77
2021/03/03 03:05:15;;;;;;;24.25;13.48;;;4.60;99.90;;;;;;5075843;28;20171;-77
2021/03/03 03:07:48;;;;;;;26.55;12.80;;;4.60;99.90;;;;;;5075350;28;20188;-77
2021/03/03 03:10:16;;;;;;;34.83;14.73;;;4.70;99.90;;;;;;5075872;28;20172;-77
2021/03/03 03:12:49;;;;;;;27.00;14.98;;;4.90;99.90;;;;;;5075609;28;20697;-76
2021/03/03 03:15:18;;;;;;;36.28;13.90;;;5.00;99.90;;;;;;5075553;28;20196;-76
2021/03/03 03:17:49;;;;;;;30.73;13.30;;;5.10;99.90;;;;;;5074294;28;20208;-78
2021/03/03 03:20:16;;;;;;;27.00;13.40;;;5.30;99.90;;;;;;5075706;28;20165;-75
2021/03/03 03:22:43;;;;;;;28.90;14.05;;;5.50;99.90;;;;;;5075415;28;20165;-77
2021/03/03 03:25:10;;;;;;;23.52;13.40;;;5.50;99.90;;;;;;5075617;28;20512;-76
2021/03/03 03:27:36;;;;;;;26.67;13.32;;;5.60;99.90;;;;;;5075086;28;20588;-78
2021/03/03 03:30:03;;;;;;;28.85;13.18;;;5.60;99.90;;;;;;5075486;28;20517;-74
2021/03/03 03:32:30;;;;;;;27.63;13.63;;;5.70;99.90;;;;;;5075231;28;20208;-77
2021/03/03 03:34:55;;;;;;;25.20;12.45;;;5.80;99.90;;;;;;5075111;28;20173;-78
2021/03/03 03:37:24;;;;;;;30.40;12.60;;;5.80;99.90;;;;;;5074827;28;20282;-77
2021/03/03 03:39:50;;;;;;;31.73;13.82;;;5.90;99.90;;;;;;5075211;28;20197;-78
2021/03/03 03:42:17;;;;;;;31.85;13.57;;;5.90;99.90;;;;;;5075415;28;20247;-76
2021/03/03 03:44:44;;;;;;;23.90;13.63;;;5.90;99.90;;;;;;5075328;28;20169;-77
2021/03/03 03:47:15;;;;;;;29.63;13.93;;;6.00;99.90;;;;;;5074862;28;20703;-76
2021/03/03 03:49:42;;;;;;;22.58;12.57;;;6.10;99.90;;;;;;5075142;28;20572;-78
2021/03/03 03:52:08;;;;;;;29.33;12.93;;;6.10;99.90;;;;;;5075082;28;20173;-76
2021/03/03 03:54:33;;;;;;;24.80;12.67;;;6.10;99.90;;;;;;5074908;28;20187;-77
2021/03/03 03:56:59;;;;;;;25.37;12.53;;;6.20;99.90;;;;;;5074267;28;20196;-75
2021/03/03 03:59:25;;;;;;;28.87;12.37;;;6.30;99.90;;;;;;5074857;28;20683;-78
2021/03/03 04:01:51;;;;;;;29.90;15.17;;;6.30;99.90;;;;;;5075297;28;20260;-77
2021/03/03 04:04:16;;;;;;;21.23;13.18;;;6.40;99.90;;;;;;5074791;28;20165;-77
2021/03/03 04:06:42;;;;;;;24.07;12.67;;;6.30;99.90;;;;;;5074790;28;20174;-77
2021/03/03 04:09:08;;;;;;;20.97;11.73;;;6.30;99.90;;;;;;5074372;28;20238;-76
2021/03/03 04:11:33;;;;;;;24.33;12.47;;;6.30;99.90;;;;;;5074861;28;20792;-77
2021/03/03 04:13:59;;;;;;;30.03;14.03;;;6.30;99.90;;;;;;5074362;28;20256;-77
2021/03/03 04:16:24;;;;;;;29.63;13.33;;;6.30;99.90;;;;;;5074471;28;20199;-74
2021/03/03 04:18:50;;;;;;;26.43;13.00;;;6.30;99.90;;;;;;5074001;28;20200;-75
2021/03/03 04:21:15;;;;;;;22.47;11.83;;;6.30;99.90;;;;;;5074505;28;20184;-77
2021/03/03 04:23:42;;;;;;;21.97;12.53;;;6.30;99.90;;;;;;5074417;28;20175;-76
2021/03/03 04:26:08;;;;;;;22.45;13.18;;;6.30;99.90;;;;;;5074444;28;20207;-76
2021/03/03 04:28:33;;;;;;;31.70;14.90;;;6.40;99.90;;;;;;5073968;28;20612;-79
2021/03/03 04:30:59;;;;;;;25.60;13.80;;;6.40;99.90;;;;;;5074573;28;20176;-74
2021/03/03 04:33:24;;;;;;;24.13;13.53;;;6.40;99.90;;;;;;5074025;28;20246;-76
2021/03/03 04:35:50;;;;;;;26.80;13.07;;;6.50;99.90;;;;;;5073983;28;20169;-77
2021/03/03 04:38:15;;;;;;;32.03;15.10;;;6.50;99.90;;;;;;5073646;28;20193;-76
2021/03/03 04:40:41;;;;;;;27.73;14.10;;;6.50;99.90;;;;;;5073952;28;20194;-77
2021/03/03 04:43:07;;;;;;;27.60;14.43;;;6.40;99.90;;;;;;5073866;28;20183;-76
2021/03/03 04:45:32;;;;;;;23.53;13.40;;;6.40;99.90;;;;;;5073858;28;20165;-77
2021/03/03 04:47:58;;;;;;;23.67;13.90;;;6.30;99.90;;;;;;5073506;28;20595;-75
2021/03/03 04:50:24;;;;;;;28.33;13.57;;;6.10;99.90;;;;;;5072588;28;20664;-78
2021/03/03 04:52:49;;;;;;;25.60;13.20;;;6.00;99.90;;;;;;5073821;28;20173;-79
2021/03/03 04:55:15;;;;;;;21.53;12.93;;;6.10;99.90;;;;;;5073717;28;20419;-76
2021/03/03 04:57:41;;;;;;;25.20;14.17;;;5.90;99.90;;;;;;5073110;28;20214;-76
2021/03/03 05:00:07;;;;;;;24.57;12.73;;;5.70;99.90;;;;;;5072417;28;20179;-78
2021/03/03 05:02:33;;;;;;;27.13;14.30;;;5.70;99.90;;;;;;5072328;28;20168;-76
2021/03/03 05:04:58;;;;;;;22.30;12.83;;;5.70;99.90;;;;;;5073646;28;20218;-76
2021/03/03 05:07:24;;;;;;;23.80;13.60;;;5.70;99.90;;;;;;5071733;28;20220;-77
2021/03/03 05:09:49;;;;;;;26.57;13.13;;;5.60;99.90;;;;;;5073801;28;20274;-76
2021/03/03 05:12:15;;;;;;;26.37;14.57;;;5.60;99.90;;;;;;5073680;28;20177;-77
2021/03/03 05:14:40;;;;;;;23.50;14.27;;;5.60;99.90;;;;;;5073477;28;20273;-76
2021/03/03 05:17:06;;;;;;;23.73;13.60;;;5.60;99.90;;;;;;5073134;28;20570;-78
2021/03/03 05:19:32;;;;;;;26.07;14.03;;;5.60;99.90;;;;;;5073191;28;20193;-79
2021/03/03 05:21:57;;;;;;;25.83;14.63;;;5.60;99.90;;;;;;5073729;28;20173;-76
2021/03/03 05:24:23;;;;;;;30.23;14.47;;;5.60;99.90;;;;;;5074271;28;20281;-78
2021/03/03 05:26:49;;;;;;;26.30;14.70;;;5.50;99.90;;;;;;5073649;28;20176;-75
2021/03/03 05:29:14;;;;;;;26.30;14.30;;;5.60;99.90;;;;;;5072887;28;20196;-77
2021/03/03 05:31:40;;;;;;;24.90;14.70;;;5.50;99.90;;;;;;5072020;28;20181;-75
2021/03/03 05:34:05;;;;;;;29.33;15.47;;;5.60;99.90;;;;;;5073238;28;20226;-78
2021/03/03 05:36:31;;;;;;;26.90;14.63;;;5.60;99.90;;;;;;5073115;28;20257;-76
2021/03/03 05:38:57;;;;;;;30.83;14.50;;;5.60;99.90;;;;;;5072511;28;20191;-77
2021/03/03 05:41:25;;;;;;;29.33;14.60;;;5.60;99.90;;;;;;5072973;28;20539;-79
2021/03/03 05:43:51;;;;;;;27.65;15.68;;;5.60;99.90;;;;;;5072952;28;20169;-76
2021/03/03 05:46:17;;;;;;;28.35;16.40;;;5.60;99.90;;;;;;5073062;28;20169;-77
2021/03/03 05:48:52;;;;;;;28.15;16.00;;;5.60;99.90;;;;;;5072758;28;20653;-78
2021/03/03 05:51:18;;;;;;;25.20;14.55;;;5.50;99.90;;;;;;5073403;28;20197;-75
2021/03/03 05:53:44;;;;;;;28.60;16.70;;;5.40;99.90;;;;;;5072973;28;20225;-77
2021/03/03 05:56:10;;;;;;;31.87;16.90;;;5.40;99.90;;;;;;5072860;28;20641;-75
2021/03/03 05:58:38;;;;;;;30.08;17.23;;;5.40;99.90;;;;;;5072816;28;20275;-78
2021/03/03 06:01:06;;;;;;;29.40;16.33;;;5.40;99.90;;;;;;5073014;28;20177;-78
2021/03/03 06:03:32;;;;;;;29.48;17.42;;;5.40;99.90;;;;;;5073082;28;20173;-76
2021/03/03 06:05:58;;;;;;;35.22;19.38;;;5.40;99.90;;;;;;5073094;28;20223;-76
2021/03/03 06:08:26;;;;;;;38.63;19.27;;;5.30;99.90;;;;;;5072461;28;20271;-76
2021/03/03 06:10:53;;;;;;;29.35;17.13;;;5.30;99.90;;;;;;5072892;28;20403;-76
2021/03/03 06:13:19;;;;;;;33.17;17.08;;;5.30;99.90;;;;;;5072797;28;20173;-78
2021/03/03 06:15:45;;;;;;;30.30;17.37;;;5.30;99.90;;;;;;5072887;28;20202;-77
2021/03/03 06:18:13;;;;;;;25.50;15.70;;;5.20;99.90;;;;;;5071026;28;20462;-78
2021/03/03 06:20:41;;;;;;;32.83;15.20;;;5.10;99.90;;;;;;5072777;28;20525;-77
2021/03/03 06:23:21;;;;;;;25.88;14.27;;;5.10;99.90;;;;;;5072785;28;20173;-76
2021/03/03 06:26:10;;;;;;;30.65;16.25;;;5.10;99.90;;;;;;5072891;28;20226;-79
2021/03/03 06:28:44;;;;;;;32.65;17.88;;;5.10;99.90;;;;;;5072440;28;20272;-76
2021/03/03 06:31:26;;;;;;;30.75;17.00;;;5.10;99.90;;;;;;5075440;28;20175;-76
2021/03/03 06:33:53;;;;;;;30.75;17.17;;;5.10;99.90;;;;;;5072637;28;20629;-78
2021/03/03 06:36:28;;;;;;;31.00;16.80;;;5.10;99.90;;;;;;5072480;28;20288;-79
2021/03/03 06:38:55;;;;;;;30.98;16.90;;;5.10;99.90;;;;;;5074455;28;20680;-77
2021/03/03 06:41:21;;;;;;;32.83;16.33;;;5.10;99.90;;;;;;5072300;28;20176;-78
2021/03/03 06:43:58;;;;;;;27.23;15.23;;;5.10;99.90;;;;;;5104943;28;20538;-77
2021/03/03 06:46:25;;;;;;;31.30;17.33;;;5.10;99.90;;;;;;5071029;28;20419;-77
2021/03/03 06:48:51;;;;;;;31.33;16.98;;;5.10;99.90;;;;;;5072179;28;20197;-76
2021/03/03 06:51:26;;;;;;;25.60;15.50;;;5.20;99.90;;;;;;5072812;28;20699;-77
2021/03/03 06:53:54;;;;;;;25.73;16.42;;;5.20;99.90;;;;;;5075995;28;20207;-79
2021/03/03 06:56:40;;;;;;;34.78;16.83;;;5.40;99.90;;;;;;5108420;28;20201;-76
2021/03/03 06:59:08;;;;;;;27.02;16.08;;;5.30;99.90;;;;;;5090319;28;20213;-77
2021/03/03 07:01:34;;;;;;;29.13;15.65;;;5.30;99.90;;;;;;5096012;28;20172;-78
2021/03/03 07:04:00;;;;;;;28.40;16.90;;;5.20;99.90;;;;;;5096159;28;20230;-76
2021/03/03 07:06:32;;;;;;;26.40;15.03;;;5.20;99.90;;;;;;5095991;28;20648;-76
2021/03/03 07:09:01;;;;;;;27.40;15.43;;;5.20;99.90;;;;;;5095787;28;20245;-77
2021/03/03 07:11:29;;;;;;;28.58;15.23;;;5.40;99.90;;;;;;5095949;28;20207;-76
2021/03/03 07:13:56;;;;;;;28.55;15.98;;;5.50;99.90;;;;;;5095756;28;20187;-76
2021/03/03 07:16:22;;;;;;;32.83;17.10;;;5.60;99.90;;;;;;5095771;28;20610;-76
2021/03/03 07:18:48;;;;;;;29.20;15.65;;;5.70;99.90;;;;;;5095327;28;20188;-77
2021/03/03 07:21:33;;;;;;;24.83;14.43;;;5.90;99.90;;;;;;5095797;28;20260;-76
2021/03/03 07:24:00;;;;;;;25.35;13.27;;;5.90;99.90;;;;;;5094213;28;20200;-77
2021/03/03 07:26:26;;;;;;;22.58;13.00;;;5.90;99.90;;;;;;5095598;28;20183;-77
2021/03/03 07:28:53;;;;;;;22.43;13.90;;;5.90;99.90;;;;;;5095149;28;20560;-77
2021/03/03 07:31:19;;;;;;;20.90;12.40;;;6.00;99.90;;;;;;5095568;28;20165;-77
2021/03/03 07:33:45;;;;;;;21.48;13.25;;;6.20;99.90;;;;;;5095650;28;20221;-77
2021/03/03 07:36:14;;;;;;;24.23;13.43;;;6.20;99.90;;;;;;5095449;28;20243;-77
2021/03/03 07:38:41;;;;;;;27.17;13.85;;;6.40;99.90;;;;;;5094912;28;20458;-78
2021/03/03 07:41:09;;;;;;;24.98;15.43;;;6.50;99.90;;;;;;5095381;28;20167;-76
2021/03/03 07:43:36;;;;;;;25.27;15.52;;;6.50;99.90;;;;;;5095459;28;20266;-77
2021/03/03 07:46:06;;;;;;;29.27;15.18;;;6.40;99.90;;;;;;5095292;28;20172;-77
2021/03/03 07:48:32;;;;;;;18.48;13.10;;;6.30;99.90;;;;;;5094834;28;20206;-77
2021/03/03 07:50:58;;;;;;;21.77;13.02;;;6.30;99.90;;;;;;5095121;28;20176;-76
2021/03/03 07:53:24;;;;;;;27.88;13.90;;;6.40;99.90;;;;;;5095580;28;20571;-76
2021/03/03 07:55:55;;;;;;;21.67;13.38;;;6.40;99.90;;;;;;5095110;28;20595;-78
2021/03/03 07:58:21;;;;;;;25.05;13.85;;;6.60;99.90;;;;;;5094861;28;20184;-77
2021/03/03 08:00:47;;;;;;;26.13;14.57;;;6.80;99.90;;;;;;5095029;28;20525;-77
2021/03/03 08:03:13;;;;;;;33.85;14.90;;;7.00;99.90;;;;;;5091189;28;20179;-75
2021/03/03 08:05:40;;;;;;;25.97;14.97;;;7.20;99.90;;;;;;5094184;28;20176;-77
2021/03/03 08:08:16;;;;;;;28.83;14.73;;;7.40;99.90;;;;;;5093034;28;20195;-77
2021/03/03 08:10:43;;;;;;;20.25;14.00;;;7.50;99.90;;;;;;5094098;28;20168;-77
2021/03/03 08:13:10;;;;;;;21.83;13.30;;;7.60;99.90;;;;;;5094366;28;20191;-76
2021/03/03 08:15:48;;;;;;;30.27;16.23;;;7.60;99.90;;;;;;5094537;28;20188;-76
2021/03/03 08:18:14;;;;;;;22.27;14.05;;;7.90;99.90;;;;;;5093566;28;20245;-78
2021/03/03 08:20:41;;;;;;;28.97;14.70;;;8.00;99.90;;;;;;5094570;28;20553;-76
2021/03/03 08:23:08;;;;;;;26.83;12.55;;;8.10;99.90;;;;;;5094487;28;20216;-77
2021/03/03 08:25:45;;;;;;;19.75;11.73;;;8.20;99.90;;;;;;5093846;28;20172;-78
2021/03/03 08:28:31;;;;;;;24.48;13.20;;;8.40;99.90;;;;;;5094209;28;20207;-76
2021/03/03 08:31:09;;;;;;;20.80;12.02;;;8.60;99.90;;;;;;5093782;28;20182;-76
2021/03/03 08:33:36;;;;;;;17.90;12.05;;;8.70;99.90;;;;;;5093725;28;20179;-77
2021/03/03 08:36:07;;;;;;;19.30;12.65;;;8.80;99.90;;;;;;5094271;28;20230;-76
2021/03/03 08:38:33;;;;;;;22.88;11.70;;;8.90;99.90;;;;;;5092984;28;20188;-78
2021/03/03 08:41:17;;;;;;;18.58;11.90;;;9.10;99.90;;;;;;5093697;28;20185;-79
2021/03/03 08:43:45;;;;;;;21.95;11.25;;;9.30;99.90;;;;;;5093941;28;20247;-78
2021/03/03 08:46:20;;;;;;;28.70;11.82;;;9.30;99.90;;;;;;5092879;28;20202;-77
2021/03/03 08:48:51;;;;;;;21.58;10.50;;;9.40;99.90;;;;;;5092378;28;20667;-77
2021/03/03 08:51:38;;;;;;;19.43;12.67;;;9.40;99.90;;;;;;5093524;28;20183;-77
2021/03/03 08:54:07;;;;;;;25.48;13.20;;;9.60;99.90;;;;;;5092898;28;20418;-76
2021/03/03 08:56:41;;;;;;;21.67;11.77;;;9.80;99.90;;;;;;5094022;28;20192;-77
2021/03/03 08:59:31;;;;;;;24.83;12.63;;;9.90;99.90;;;;;;5091631;28;20441;-76
2021/03/03 09:02:07;;;;;;;23.27;11.98;;;10.10;99.90;;;;;;5092897;28;20410;-74
2021/03/03 09:04:45;;;;;;;18.60;10.87;;;10.10;99.90;;;;;;5093595;28;20172;-77
2021/03/03 09:07:31;;;;;;;25.57;13.80;;;10.30;99.90;;;;;;5092119;28;20418;-77
2021/03/03 09:10:00;;;;;;;20.53;11.97;;;10.50;99.90;;;;;;5094065;28;20388;-77
2021/03/03 09:12:36;;;;;;;21.13;11.87;;;10.60;99.90;;;;;;5093055;28;20414;-76
2021/03/03 09:15:04;;;;;;;19.77;12.53;;;10.80;99.90;;;;;;5090733;28;20790;-76
2021/03/03 09:17:32;;;;;;;20.67;12.07;;;11.00;99.90;;;;;;5093227;28;20469;-77
2021/03/03 09:20:01;;;;;;;18.83;11.93;;;11.10;99.90;;;;;;5097553;28;20370;-76
2021/03/03 09:22:30;;;;;;;25.97;12.17;;;11.20;99.90;;;;;;5097653;28;20413;-76
2021/03/03 09:25:12;;;;;;;20.97;12.93;;;11.40;99.90;;;;;;5093536;28;20414;-76
2021/03/03 09:27:47;;;;;;;20.53;12.50;;;11.90;99.90;;;;;;5092176;28;20412;-77
2021/03/03 09:30:13;;;;;;;18.93;11.90;;;12.00;99.90;;;;;;5093359;28;20384;-77
2021/03/03 09:32:39;;;;;;;23.97;13.40;;;12.50;99.90;;;;;;5093283;28;20389;-77
2021/03/03 09:35:06;;;;;;;20.40;11.60;;;12.90;99.90;;;;;;5092300;28;20404;-76
2021/03/03 09:37:42;;;;;;;22.90;13.37;;;13.10;99.90;;;;;;5092915;28;20557;-75
2021/03/03 09:40:10;;;;;;;20.40;12.00;;;13.20;99.90;;;;;;5092840;28;20796;-75
2021/03/03 09:42:38;;;;;;;19.73;13.10;;;13.30;99.90;;;;;;5091469;28;20410;-75
2021/03/03 09:45:06;;;;;;;19.17;13.03;;;13.60;99.90;;;;;;5091827;28;20421;-77
2021/03/03 09:47:39;;;;;;;20.90;11.40;;;14.00;99.90;;;;;;5092029;28;20434;-77
2021/03/03 09:50:09;;;;;;;21.67;12.63;;;14.40;99.90;;;;;;5092848;28;20769;-75
2021/03/03 09:52:44;;;;;;;19.17;12.03;;;14.60;99.90;;;;;;5093119;28;20429;-77
2021/03/03 09:55:18;;;;;;;21.80;13.20;;;14.60;99.90;;;;;;5092148;28;20898;-75
2021/03/03 09:57:49;;;;;;;19.50;13.70;;;14.80;99.90;;;;;;5092408;28;20970;-74
2021/03/03 10:00:23;;;;;;;19.10;12.33;;;14.60;99.90;;;;;;5092865;28;20385;-73
2021/03/03 10:02:54;;;;;;;23.63;13.17;;;14.60;99.90;;;;;;5091873;28;20406;-76
2021/03/03 10:05:22;;;;;;;21.27;13.53;;;15.40;99.90;;;;;;5092931;28;20749;-76
2021/03/03 10:07:59;;;;;;;21.17;12.90;;;15.50;99.90;;;;;;5092403;28;20472;-74
2021/03/03 10:10:28;;;;;;;24.70;14.27;;;15.30;99.90;;;;;;5092617;28;20446;-75
2021/03/03 10:12:54;;;;;;;22.93;14.37;;;15.30;99.90;;;;;;5093061;28;20522;-75
2021/03/03 10:15:34;;;;;;;20.67;13.00;;;15.20;99.90;;;;;;5081411;28;20437;-74
2021/03/03 10:18:04;;;;;;;17.43;12.73;;;15.60;99.90;;;;;;5070809;28;20545;-75
2021/03/03 10:20:48;;;;;;;21.03;13.30;;;15.40;99.90;;;;;;5072305;28;20441;-75
2021/03/03 10:23:19;;;;;;;22.93;13.53;;;15.80;99.90;;;;;;5071325;28;20407;-74
2021/03/03 10:25:52;;;;;;;18.60;14.20;;;16.20;99.90;;;;;;5073620;28;20872;-75
2021/03/03 10:28:20;;;;;;;19.33;13.03;;;16.00;99.90;;;;;;5076236;28;20514;-75
2021/03/03 10:30:51;;;;;;;22.20;13.70;;;16.80;99.90;;;;;;5075227;28;20524;-74
2021/03/03 10:33:31;;;;;;;23.87;14.10;;;16.10;99.90;;;;;;5076290;28;20403;-75
2021/03/03 10:35:59;;;;;;;22.07;12.40;;;16.20;99.90;;;;;;5075827;28;20409;-75
2021/03/03 10:38:25;;;;;;;22.07;14.80;;;15.70;99.90;;;;;;5075554;28;20419;-75
2021/03/03 10:40:53;;;;;;;20.50;14.30;;;16.10;99.90;;;;;;5076338;28;20402;-75
2021/03/03 10:43:21;;;;;;;31.30;15.60;;;16.00;99.90;;;;;;5075854;28;20441;-74
2021/03/03 10:45:48;;;;;;;25.53;13.57;;;16.20;99.90;;;;;;5075609;28;20403;-76
2021/03/03 10:48:30;;;;;;;26.83;16.57;;;16.60;99.90;;;;;;5075678;28;20803;-76
2021/03/03 10:50:59;;;;;;;26.37;14.60;;;16.60;99.90;;;;;;5075313;28;20502;-74
2021/03/03 10:53:54;;;;;;;21.37;14.47;;;17.10;99.90;;;;;;5075881;28;20413;-75
2021/03/03 10:56:24;;;;;;;31.70;15.87;;;16.70;99.90;;;;;;5075336;28;20835;-75
2021/03/03 10:58:54;;;;;;;23.17;15.60;;;17.20;99.90;;;;;;5074515;28;20427;-75
2021/03/03 11:01:20;;;;;;;28.67;16.50;;;17.10;99.90;;;;;;5076002;28;20411;-76
2021/03/03 11:03:57;;;;;;;27.03;14.53;;;17.40;99.90;;;;;;5075112;28;20762;-74
2021/03/03 11:06:29;;;;;;;23.53;15.50;;;17.60;99.90;;;;;;5074883;28;20540;-74
2021/03/03 11:08:55;;;;;;;25.97;16.97;;;17.50;99.90;;;;;;5074191;28;20434;-74
2021/03/03 11:11:21;;;;;;;28.67;15.73;;;17.30;99.90;;;;;;5075189;28;20411;-73
2021/03/03 11:13:46;;;;;;;24.97;15.43;;;17.40;99.90;;;;;;5075002;28;20431;-75
2021/03/03 11:16:12;;;;;;;24.73;15.00;;;17.80;99.90;;;;;;5091067;28;20667;-74
2021/03/03 11:18:39;;;;;;;25.63;16.07;;;17.00;99.90;;;;;;5094510;28;20198;-75
2021/03/03 11:21:04;;;;;;;27.20;16.40;;;16.60;99.90;;;;;;5095303;28;20168;-74
2021/03/03 11:23:30;;;;;;;23.77;14.77;;;16.80;99.90;;;;;;5095190;28;20544;-75
2021/03/03 11:25:59;;;;;;;22.07;15.60;;;17.00;99.90;;;;;;5094459;28;20168;-74
2021/03/03 11:28:24;;;;;;;29.67;16.27;;;16.90;99.90;;;;;;5095115;28;20282;-75
2021/03/03 11:30:51;;;;;;;29.17;16.03;;;17.00;99.90;;;;;;5095369;28;20497;-75
2021/03/03 11:33:17;;;;;;;28.77;16.83;;;17.30;99.90;;;;;;5094492;28;20160;-74
2021/03/03 11:35:43;;;;;;;25.73;15.67;;;17.70;99.90;;;;;;5095409;28;20413;-76
2021/03/03 11:38:08;;;;;;;24.07;15.13;;;18.00;99.90;;;;;;5093374;28;20549;-74
2021/03/03 11:40:34;;;;;;;27.63;16.77;;;17.60;99.90;;;;;;5094586;28;20168;-75
2021/03/03 11:43:00;;;;;;;31.07;16.70;;;18.10;99.90;;;;;;5094251;28;20253;-74
2021/03/03 11:45:26;;;;;;;28.17;14.90;;;18.20;99.90;;;;;;5093535;28;20406;-75
2021/03/03 11:47:52;;;;;;;30.30;16.67;;;18.40;99.90;;;;;;5094447;28;20192;-76
2021/03/03 11:50:17;;;;;;;33.30;16.73;;;18.20;99.90;;;;;;5095149;28;20529;-74
2021/03/03 11:52:43;;;;;;;28.63;15.97;;;18.40;99.90;;;;;;5093283;28;20224;-75
2021/03/03 11:55:09;;;;;;;30.10;16.60;;;18.70;99.90;;;;;;5093385;28;20180;-74
2021/03/03 11:57:35;;;;;;;28.33;16.43;;;18.40;99.90;;;;;;5094542;28;20216;-76
2021/03/03 12:00:04;;;;;;;32.30;18.20;;;18.40;99.90;;;;;;5094147;28;20406;-76
2021/03/03 12:02:29;;;;;;;31.47;17.77;;;18.40;99.90;;;;;;5094278;28;20399;-76
2021/03/03 12:04:55;;;;;;;28.60;17.30;;;18.40;99.90;;;;;;5094357;28;20882;-76
2021/03/03 12:07:20;;;;;;;29.27;17.43;;;18.80;99.90;;;;;;5092777;28;20191;-77
2021/03/03 12:09:46;;;;;;;37.23;17.53;;;19.00;99.90;;;;;;5093180;28;20302;-78
2021/03/03 12:12:12;;;;;;;34.33;16.33;;;19.40;99.90;;;;;;5094815;28;20573;-76
2021/03/03 12:14:37;;;;;;;31.00;16.50;;;19.00;99.90;;;;;;5093183;28;20188;-74
2021/03/03 12:17:03;;;;;;;24.63;15.83;;;19.20;99.90;;;;;;5093909;28;20253;-74
2021/03/03 12:19:29;;;;;;;29.83;16.77;;;19.40;99.90;;;;;;5094632;28;20191;-73
2021/03/03 12:21:54;;;;;;;30.20;17.60;;;19.40;99.90;;;;;;5093365;28;20207;-75
2021/03/03 12:24:20;;;;;;;26.70;15.83;;;19.10;99.90;;;;;;5094255;28;20192;-75
2021/03/03 12:26:46;;;;;;;30.73;16.97;;;18.60;99.90;;;;;;5094188;28;20217;-75
2021/03/03 12:29:11;;;;;;;27.77;15.00;;;19.20;99.90;;;;;;5091793;28;20192;-75
2021/03/03 12:31:40;;;;;;;28.10;15.57;;;19.10;99.90;;;;;;5094272;28;20209;-74
2021/03/03 12:34:05;;;;;;;29.60;18.37;;;18.90;99.90;;;;;;5093963;28;20558;-74
2021/03/03 12:36:31;;;;;;;28.20;16.73;;;19.10;99.90;;;;;;5093067;28;20475;-76
2021/03/03 12:38:57;;;;;;;29.20;16.17;;;19.20;99.90;;;;;;5091922;28;20242;-74